Tukang — VMQ9957 — position and weather

sailwx.info

Track history (hours):
 
Tides and Currents Weather Stations Pressure Air Temp Water Temp Dewpoint Dewpoint Depression Visibility Wind Speed Wind Dir Waves Ship Positions

Tukang

Last reported at 2013-Nov-21 03:11 UTC. Time now 2014-Sep-02 04:22 UTC.
Position S 10°40' E 142°25'.
Warning: this ship's position is months out of date.

Length 32 m; draft 3.5 m.

Type: Tug. MMSI: 503689000.

Date/timePositionNaut miles runAvg speedWind from/ knotsBaromVisibWave heightAir tempDewpointWater temp
2013-Nov-21 03:11S 10°40' E 142°25'4 5.9
2013-Nov-21 02:33S 10°43' E 142°23'7 6.9
2013-Nov-21 01:33S 10°49' E 142°18'7 7.1
2013-Nov-21 00:34S 10°50' E 142°11'16 7.6
2013-Nov-20 22:31S 10°49' E 141°55'  
2013-Nov-16 08:13S 12°13' E 130°49'5 7.2
2013-Nov-16 07:33S 12°17' E 130°45'5 5.1
2013-Nov-16 06:33S 12°22' E 130°45'4 4.0
2013-Nov-16 05:34S 12°26' E 130°47'3 3.3
2013-Nov-16 04:34S 12°28' E 130°49'2 1.6
2013-Nov-16 03:29S 12°28' E 130°51'0 0.0
2013-Nov-16 02:32S 12°28' E 130°51'0 0.0
2013-Nov-16 01:23S 12°28' E 130°51'0 0.0
2013-Nov-16 00:32S 12°28' E 130°51'0 0.0
2013-Nov-15 23:32S 12°28' E 130°51'0 0.2
2013-Nov-15 22:31S 12°28' E 130°51'0 0.0
2013-Nov-15 21:31S 12°28' E 130°51'0 0.0
2013-Nov-15 20:31S 12°28' E 130°51'0 0.0
2013-Nov-15 17:28S 12°28' E 130°51'0 0.0
2013-Nov-15 16:31S 12°28' E 130°51'0 0.0
2013-Nov-15 15:31S 12°28' E 130°51'0 0.0
2013-Nov-15 14:28S 12°28' E 130°51'0 0.0
2013-Nov-15 13:31S 12°28' E 130°51'0 0.0
2013-Nov-15 12:31S 12°28' E 130°51'0 0.0
2013-Nov-15 11:31S 12°28' E 130°51'0 0.0
2013-Nov-15 10:31S 12°28' E 130°51'0 0.0
2013-Nov-15 09:25S 12°28' E 130°51'0 0.0
2013-Nov-15 08:31S 12°28' E 130°51'0 0.0
2013-Nov-15 07:28S 12°28' E 130°51'0 0.0
2013-Nov-15 06:31S 12°28' E 130°51'0 0.0
2013-Nov-15 05:25S 12°28' E 130°51'0 0.1
2013-Nov-15 04:31S 12°28' E 130°51'0 0.1
2013-Nov-15 03:31S 12°28' E 130°51'0 0.0
2013-Nov-15 02:31S 12°28' E 130°51'0 0.0
2013-Nov-15 01:31S 12°28' E 130°51'0 0.0
2013-Nov-15 00:22S 12°28' E 130°51'0 0.1
2013-Nov-14 23:31S 12°28' E 130°51'0 0.1
2013-Nov-14 22:25S 12°28' E 130°51'0 0.0
2013-Nov-14 21:31S 12°28' E 130°51'0 0.0
2013-Nov-14 20:31S 12°28' E 130°51'0 0.0
2013-Nov-14 19:28S 12°28' E 130°51'0 0.0
2013-Nov-14 18:31S 12°28' E 130°51'0 0.1
2013-Nov-14 17:31S 12°28' E 130°51'0 0.1
2013-Nov-14 16:28S 12°28' E 130°51'0 0.0
2013-Nov-14 15:31S 12°28' E 130°51'0 0.1
2013-Nov-14 14:31S 12°28' E 130°51'0 0.1
2013-Nov-14 13:31S 12°28' E 130°51'0 0.0
2013-Nov-14 12:31S 12°28' E 130°51'0 0.0
2013-Nov-14 11:31S 12°28' E 130°51'0 0.0
2013-Nov-14 10:31S 12°28' E 130°51'0 0.0
2013-Nov-14 09:31S 12°28' E 130°51'0 0.0
2013-Nov-14 08:31S 12°28' E 130°51'0 0.1
2013-Nov-14 07:31S 12°28' E 130°51'0 0.1
2013-Nov-14 06:31S 12°28' E 130°51'0 0.0
2013-Nov-14 05:31S 12°28' E 130°51'0 0.0
2013-Nov-14 04:31S 12°28' E 130°51'0 0.1
2013-Nov-14 03:31S 12°28' E 130°51'0 0.1
2013-Nov-14 02:31S 12°28' E 130°51'0 0.0
2013-Nov-14 01:28S 12°28' E 130°51'0 0.0
2013-Nov-14 00:34S 12°28' E 130°51'0 0.0
2013-Nov-13 23:31S 12°28' E 130°51'0 0.0
2013-Nov-13 22:34S 12°28' E 130°51'0 0.0
2013-Nov-13 21:30S 12°28' E 130°51'0 0.0
2013-Nov-13 20:27S 12°28' E 130°51'0 0.0
2013-Nov-13 19:27S 12°28' E 130°51'0 0.0
2013-Nov-13 18:27S 12°28' E 130°51'0 0.0
2013-Nov-13 17:30S 12°28' E 130°51'0 0.0
2013-Nov-13 16:33S 12°28' E 130°51'0 0.0
2013-Nov-13 15:33S 12°28' E 130°51'0 0.1
2013-Nov-13 14:30S 12°28' E 130°51'0 0.1
2013-Nov-13 13:30S 12°28' E 130°51'0 0.0
2013-Nov-13 12:33S 12°28' E 130°51'0 0.0
2013-Nov-13 11:33S 12°28' E 130°51'0 0.0
2013-Nov-13 10:30S 12°28' E 130°51'0 0.0
2013-Nov-13 09:33S 12°28' E 130°51'0 0.0
2013-Nov-13 08:33S 12°28' E 130°51'0 0.0
2013-Nov-13 07:33S 12°28' E 130°51'0 0.0
2013-Nov-13 06:33S 12°28' E 130°51'0 0.0
2013-Nov-13 05:30S 12°28' E 130°51'0 0.0
2013-Nov-13 04:33S 12°28' E 130°51'0 0.0
2013-Nov-13 03:33S 12°28' E 130°51'0 0.0
2013-Nov-13 02:33S 12°28' E 130°51'0 0.0
2013-Nov-13 01:33S 12°28' E 130°51'0 0.0
2013-Nov-13 00:33S 12°28' E 130°51'0 0.0
2013-Nov-12 23:33S 12°28' E 130°51'0 0.1
2013-Nov-12 22:33S 12°28' E 130°51'0 0.1
2013-Nov-12 21:30S 12°28' E 130°51'0 0.0
2013-Nov-12 20:33S 12°28' E 130°51'0 0.0
2013-Nov-12 19:33S 12°28' E 130°51'0 0.0
2013-Nov-12 18:30S 12°28' E 130°51'0 0.0
2013-Nov-12 17:33S 12°28' E 130°51'0 0.0
2013-Nov-12 16:33S 12°28' E 130°51'0 0.0
2013-Nov-12 15:33S 12°28' E 130°51'0 0.0
2013-Nov-12 14:30S 12°28' E 130°51'0 0.0
2013-Nov-12 13:33S 12°28' E 130°51'0 0.0
2013-Nov-12 12:30S 12°28' E 130°51'0 0.0
2013-Nov-12 11:30S 12°28' E 130°51'0 0.0
2013-Nov-12 10:33S 12°28' E 130°51'0 0.0
2013-Nov-12 09:33S 12°28' E 130°51'0 0.0
2013-Nov-12 08:32S 12°28' E 130°51'0 0.0
2013-Nov-12 07:32S 12°28' E 130°51'0 0.0
2013-Nov-12 06:32S 12°28' E 130°51'0 0.0
2013-Nov-12 05:32S 12°28' E 130°51'0 0.0
2013-Nov-12 04:32S 12°28' E 130°51'0 0.0
2013-Nov-12 03:32S 12°28' E 130°51'0 0.0
2013-Nov-12 02:32S 12°28' E 130°51'0 0.0
2013-Nov-12 01:32S 12°28' E 130°51'0 0.0
2013-Nov-12 00:32S 12°28' E 130°51'0 0.0
2013-Nov-11 23:32S 12°28' E 130°51'0 0.0
2013-Nov-11 22:29S 12°28' E 130°51'0 0.0
2013-Nov-11 21:29S 12°28' E 130°51'0 0.0
2013-Nov-11 20:32S 12°28' E 130°51'0 0.0
2013-Nov-11 19:32S 12°28' E 130°51'0 0.0
2013-Nov-11 18:26S 12°28' E 130°51'0 0.0
2013-Nov-11 17:32S 12°28' E 130°51'0 0.0
2013-Nov-11 16:26S 12°28' E 130°51'0 0.0
2013-Nov-11 15:29S 12°28' E 130°51'0 0.1
2013-Nov-11 14:32S 12°28' E 130°51'0 0.1
2013-Nov-11 13:32S 12°28' E 130°51'0 0.0
2013-Nov-11 12:32S 12°28' E 130°51'0 0.0
2013-Nov-11 11:29S 12°28' E 130°51'0 0.0
2013-Nov-11 10:32S 12°28' E 130°51'0 0.0
2013-Nov-11 09:32S 12°28' E 130°51'0 0.0
2013-Nov-11 08:32S 12°28' E 130°51'0 0.0
2013-Nov-11 07:32S 12°28' E 130°51'0 0.0
2013-Nov-11 06:32S 12°28' E 130°51'0 0.0
2013-Nov-11 05:32S 12°28' E 130°51'0 0.0
2013-Nov-11 04:32S 12°28' E 130°51'0 0.0
2013-Nov-11 03:32S 12°28' E 130°51'  
Track history (hours):
 
Tides and Currents Weather Stations Pressure Air Temp Water Temp Dewpoint Dewpoint Depression Visibility Wind Speed Wind Dir Waves Ship Positions

Tukang

Last reported at 2013-Nov-21 03:11 UTC. Time now 2014-Sep-02 04:22 UTC.
Position S 10°40' E 142°25'.
Warning: this ship's position is months out of date.

Length 32 m; draft 3.5 m.

Type: Tug. MMSI: 503689000.

Date/timePositionNaut miles runAvg speedWind from/ knotsBaromVisibWave heightAir tempDewpointWater temp
2013-Nov-21 03:11S 10°40' E 142°25'4 5.9
2013-Nov-21 02:33S 10°43' E 142°23'7 6.9
2013-Nov-21 01:33S 10°49' E 142°18'7 7.1
2013-Nov-21 00:34S 10°50' E 142°11'16 7.6
2013-Nov-20 22:31S 10°49' E 141°55'  
2013-Nov-16 08:13S 12°13' E 130°49'5 7.2
2013-Nov-16 07:33S 12°17' E 130°45'5 5.1
2013-Nov-16 06:33S 12°22' E 130°45'4 4.0
2013-Nov-16 05:34S 12°26' E 130°47'3 3.3
2013-Nov-16 04:34S 12°28' E 130°49'2 1.6
2013-Nov-16 03:29S 12°28' E 130°51'0 0.0
2013-Nov-16 02:32S 12°28' E 130°51'0 0.0
2013-Nov-16 01:23S 12°28' E 130°51'0 0.0
2013-Nov-16 00:32S 12°28' E 130°51'0 0.0
2013-Nov-15 23:32S 12°28' E 130°51'0 0.2
2013-Nov-15 22:31S 12°28' E 130°51'0 0.0
2013-Nov-15 21:31S 12°28' E 130°51'0 0.0
2013-Nov-15 20:31S 12°28' E 130°51'0 0.0
2013-Nov-15 17:28S 12°28' E 130°51'0 0.0
2013-Nov-15 16:31S 12°28' E 130°51'0 0.0
2013-Nov-15 15:31S 12°28' E 130°51'0 0.0
2013-Nov-15 14:28S 12°28' E 130°51'0 0.0
2013-Nov-15 13:31S 12°28' E 130°51'0 0.0
2013-Nov-15 12:31S 12°28' E 130°51'0 0.0
2013-Nov-15 11:31S 12°28' E 130°51'0 0.0
2013-Nov-15 10:31S 12°28' E 130°51'0 0.0
2013-Nov-15 09:25S 12°28' E 130°51'0 0.0
2013-Nov-15 08:31S 12°28' E 130°51'0 0.0
2013-Nov-15 07:28S 12°28' E 130°51'0 0.0
2013-Nov-15 06:31S 12°28' E 130°51'0 0.0
2013-Nov-15 05:25S 12°28' E 130°51'0 0.1
2013-Nov-15 04:31S 12°28' E 130°51'0 0.1
2013-Nov-15 03:31S 12°28' E 130°51'0 0.0
2013-Nov-15 02:31S 12°28' E 130°51'0 0.0
2013-Nov-15 01:31S 12°28' E 130°51'0 0.0
2013-Nov-15 00:22S 12°28' E 130°51'0 0.1
2013-Nov-14 23:31S 12°28' E 130°51'0 0.1
2013-Nov-14 22:25S 12°28' E 130°51'0 0.0
2013-Nov-14 21:31S 12°28' E 130°51'0 0.0
2013-Nov-14 20:31S 12°28' E 130°51'0 0.0
2013-Nov-14 19:28S 12°28' E 130°51'0 0.0
2013-Nov-14 18:31S 12°28' E 130°51'0 0.1
2013-Nov-14 17:31S 12°28' E 130°51'0 0.1
2013-Nov-14 16:28S 12°28' E 130°51'0 0.0
2013-Nov-14 15:31S 12°28' E 130°51'0 0.1
2013-Nov-14 14:31S 12°28' E 130°51'0 0.1
2013-Nov-14 13:31S 12°28' E 130°51'0 0.0
2013-Nov-14 12:31S 12°28' E 130°51'0 0.0
2013-Nov-14 11:31S 12°28' E 130°51'0 0.0
2013-Nov-14 10:31S 12°28' E 130°51'0 0.0
2013-Nov-14 09:31S 12°28' E 130°51'0 0.0
2013-Nov-14 08:31S 12°28' E 130°51'0 0.1
2013-Nov-14 07:31S 12°28' E 130°51'0 0.1
2013-Nov-14 06:31S 12°28' E 130°51'0 0.0
2013-Nov-14 05:31S 12°28' E 130°51'0 0.0
2013-Nov-14 04:31S 12°28' E 130°51'0 0.1
2013-Nov-14 03:31S 12°28' E 130°51'0 0.1
2013-Nov-14 02:31S 12°28' E 130°51'0 0.0
2013-Nov-14 01:28S 12°28' E 130°51'0 0.0
2013-Nov-14 00:34S 12°28' E 130°51'0 0.0
2013-Nov-13 23:31S 12°28' E 130°51'0 0.0
2013-Nov-13 22:34S 12°28' E 130°51'0 0.0
2013-Nov-13 21:30S 12°28' E 130°51'0 0.0
2013-Nov-13 20:27S 12°28' E 130°51'0 0.0
2013-Nov-13 19:27S 12°28' E 130°51'0 0.0
2013-Nov-13 18:27S 12°28' E 130°51'0 0.0
2013-Nov-13 17:30S 12°28' E 130°51'0 0.0
2013-Nov-13 16:33S 12°28' E 130°51'0 0.0
2013-Nov-13 15:33S 12°28' E 130°51'0 0.1
2013-Nov-13 14:30S 12°28' E 130°51'0 0.1
2013-Nov-13 13:30S 12°28' E 130°51'0 0.0
2013-Nov-13 12:33S 12°28' E 130°51'0 0.0
2013-Nov-13 11:33S 12°28' E 130°51'0 0.0
2013-Nov-13 10:30S 12°28' E 130°51'0 0.0
2013-Nov-13 09:33S 12°28' E 130°51'0 0.0
2013-Nov-13 08:33S 12°28' E 130°51'0 0.0
2013-Nov-13 07:33S 12°28' E 130°51'0 0.0
2013-Nov-13 06:33S 12°28' E 130°51'0 0.0
2013-Nov-13 05:30S 12°28' E 130°51'0 0.0
2013-Nov-13 04:33S 12°28' E 130°51'0 0.0
2013-Nov-13 03:33S 12°28' E 130°51'0 0.0
2013-Nov-13 02:33S 12°28' E 130°51'0 0.0
2013-Nov-13 01:33S 12°28' E 130°51'0 0.0
2013-Nov-13 00:33S 12°28' E 130°51'0 0.0
2013-Nov-12 23:33S 12°28' E 130°51'0 0.1
2013-Nov-12 22:33S 12°28' E 130°51'0 0.1
2013-Nov-12 21:30S 12°28' E 130°51'0 0.0
2013-Nov-12 20:33S 12°28' E 130°51'0 0.0
2013-Nov-12 19:33S 12°28' E 130°51'0 0.0
2013-Nov-12 18:30S 12°28' E 130°51'0 0.0
2013-Nov-12 17:33S 12°28' E 130°51'0 0.0
2013-Nov-12 16:33S 12°28' E 130°51'0 0.0
2013-Nov-12 15:33S 12°28' E 130°51'0 0.0
2013-Nov-12 14:30S 12°28' E 130°51'0 0.0
2013-Nov-12 13:33S 12°28' E 130°51'0 0.0
2013-Nov-12 12:30S 12°28' E 130°51'0 0.0
2013-Nov-12 11:30S 12°28' E 130°51'0 0.0
2013-Nov-12 10:33S 12°28' E 130°51'0 0.0
2013-Nov-12 09:33S 12°28' E 130°51'0 0.0
2013-Nov-12 08:32S 12°28' E 130°51'0 0.0
2013-Nov-12 07:32S 12°28' E 130°51'0 0.0
2013-Nov-12 06:32S 12°28' E 130°51'0 0.0
2013-Nov-12 05:32S 12°28' E 130°51'0 0.0
2013-Nov-12 04:32S 12°28' E 130°51'0 0.0
2013-Nov-12 03:32S 12°28' E 130°51'0 0.0
2013-Nov-12 02:32S 12°28' E 130°51'0 0.0
2013-Nov-12 01:32S 12°28' E 130°51'0 0.0
2013-Nov-12 00:32S 12°28' E 130°51'0 0.0
2013-Nov-11 23:32S 12°28' E 130°51'0 0.0
2013-Nov-11 22:29S 12°28' E 130°51'0 0.0
2013-Nov-11 21:29S 12°28' E 130°51'0 0.0
2013-Nov-11 20:32S 12°28' E 130°51'0 0.0
2013-Nov-11 19:32S 12°28' E 130°51'0 0.0
2013-Nov-11 18:26S 12°28' E 130°51'0 0.0
2013-Nov-11 17:32S 12°28' E 130°51'0 0.0
2013-Nov-11 16:26S 12°28' E 130°51'0 0.0
2013-Nov-11 15:29S 12°28' E 130°51'0 0.1
2013-Nov-11 14:32S 12°28' E 130°51'0 0.1
2013-Nov-11 13:32S 12°28' E 130°51'0 0.0
2013-Nov-11 12:32S 12°28' E 130°51'0 0.0
2013-Nov-11 11:29S 12°28' E 130°51'0 0.0
2013-Nov-11 10:32S 12°28' E 130°51'0 0.0
2013-Nov-11 09:32S 12°28' E 130°51'0 0.0
2013-Nov-11 08:32S 12°28' E 130°51'0 0.0
2013-Nov-11 07:32S 12°28' E 130°51'0 0.0
2013-Nov-11 06:32S 12°28' E 130°51'0 0.0
2013-Nov-11 05:32S 12°28' E 130°51'0 0.0
2013-Nov-11 04:32S 12°28' E 130°51'0 0.0
2013-Nov-11 03:32S 12°28' E 130°51'  

Dump ship's entire track history